sensor_id;sensor_type;location;lat;lon;timestamp;P1;durP1;ratioP1;P2;durP2;ratioP2
6537;SDS011;3302;52.508;13.454;2022-07-23T00:01:19;5.60;;;4.90;;
6537;SDS011;3302;52.508;13.454;2022-07-23T00:03:45;7.57;;;4.70;;
6537;SDS011;3302;52.508;13.454;2022-07-23T00:06:11;4.90;;;4.40;;
6537;SDS011;3302;52.508;13.454;2022-07-23T00:08:37;5.50;;;4.57;;
6537;SDS011;3302;52.508;13.454;2022-07-23T00:11:02;6.73;;;5.10;;
6537;SDS011;3302;52.508;13.454;2022-07-23T00:13:28;5.53;;;4.50;;
6537;SDS011;3302;52.508;13.454;2022-07-23T00:15:54;5.00;;;4.50;;
6537;SDS011;3302;52.508;13.454;2022-07-23T00:18:20;4.73;;;4.20;;
6537;SDS011;3302;52.508;13.454;2022-07-23T00:20:46;5.60;;;5.00;;
6537;SDS011;3302;52.508;13.454;2022-07-23T00:23:13;5.17;;;4.67;;
6537;SDS011;3302;52.508;13.454;2022-07-23T00:25:39;6.57;;;5.20;;
6537;SDS011;3302;52.508;13.454;2022-07-23T00:28:04;7.23;;;4.70;;
6537;SDS011;3302;52.508;13.454;2022-07-23T00:30:30;5.73;;;4.20;;
6537;SDS011;3302;52.508;13.454;2022-07-23T00:32:58;5.63;;;4.20;;
6537;SDS011;3302;52.508;13.454;2022-07-23T00:35:29;4.80;;;4.33;;
6537;SDS011;3302;52.508;13.454;2022-07-23T00:37:58;5.43;;;4.57;;
6537;SDS011;3302;52.508;13.454;2022-07-23T00:40:25;5.63;;;4.63;;
6537;SDS011;3302;52.508;13.454;2022-07-23T00:42:52;5.40;;;4.23;;
6537;SDS011;3302;52.508;13.454;2022-07-23T00:45:18;6.07;;;4.83;;
6537;SDS011;3302;52.508;13.454;2022-07-23T00:47:44;6.67;;;4.93;;
6537;SDS011;3302;52.508;13.454;2022-07-23T00:50:10;8.40;;;4.87;;
6537;SDS011;3302;52.508;13.454;2022-07-23T00:52:37;5.37;;;4.87;;
6537;SDS011;3302;52.508;13.454;2022-07-23T00:55:04;6.93;;;5.10;;
6537;SDS011;3302;52.508;13.454;2022-07-23T00:57:30;7.00;;;4.70;;
6537;SDS011;3302;52.508;13.454;2022-07-23T00:59:56;7.53;;;5.03;;
6537;SDS011;3302;52.508;13.454;2022-07-23T01:02:23;5.13;;;4.63;;
6537;SDS011;3302;52.508;13.454;2022-07-23T01:04:50;5.40;;;4.37;;
6537;SDS011;3302;52.508;13.454;2022-07-23T01:07:17;6.93;;;4.90;;
6537;SDS011;3302;52.508;13.454;2022-07-23T01:09:44;7.00;;;4.60;;
6537;SDS011;3302;52.508;13.454;2022-07-23T01:12:10;5.73;;;4.87;;
6537;SDS011;3302;52.508;13.454;2022-07-23T01:14:36;9.33;;;5.10;;
6537;SDS011;3302;52.508;13.454;2022-07-23T01:17:02;5.77;;;4.70;;
6537;SDS011;3302;52.508;13.454;2022-07-23T01:19:28;5.73;;;4.63;;
6537;SDS011;3302;52.508;13.454;2022-07-23T01:21:54;8.13;;;4.83;;
6537;SDS011;3302;52.508;13.454;2022-07-23T01:24:23;5.27;;;4.77;;
6537;SDS011;3302;52.508;13.454;2022-07-23T01:26:49;5.23;;;4.47;;
6537;SDS011;3302;52.508;13.454;2022-07-23T01:29:15;6.27;;;4.60;;
6537;SDS011;3302;52.508;13.454;2022-07-23T01:31:42;5.47;;;4.43;;
6537;SDS011;3302;52.508;13.454;2022-07-23T01:34:08;5.90;;;4.57;;
6537;SDS011;3302;52.508;13.454;2022-07-23T01:36:35;5.30;;;4.80;;
6537;SDS011;3302;52.508;13.454;2022-07-23T01:39:01;6.07;;;4.73;;
6537;SDS011;3302;52.508;13.454;2022-07-23T01:41:28;6.03;;;5.00;;
6537;SDS011;3302;52.508;13.454;2022-07-23T01:43:54;5.67;;;4.80;;
6537;SDS011;3302;52.508;13.454;2022-07-23T01:46:20;5.67;;;4.50;;
6537;SDS011;3302;52.508;13.454;2022-07-23T01:48:46;8.43;;;4.80;;
6537;SDS011;3302;52.508;13.454;2022-07-23T01:51:11;7.67;;;4.60;;
6537;SDS011;3302;52.508;13.454;2022-07-23T01:53:37;5.50;;;4.97;;
6537;SDS011;3302;52.508;13.454;2022-07-23T01:56:03;5.27;;;4.73;;
6537;SDS011;3302;52.508;13.454;2022-07-23T01:58:29;6.87;;;4.90;;
6537;SDS011;3302;52.508;13.454;2022-07-23T02:00:55;4.87;;;4.37;;
6537;SDS011;3302;52.508;13.454;2022-07-23T02:03:22;7.30;;;5.17;;
6537;SDS011;3302;52.508;13.454;2022-07-23T02:05:48;9.63;;;5.47;;
6537;SDS011;3302;52.508;13.454;2022-07-23T02:08:14;6.80;;;5.40;;
6537;SDS011;3302;52.508;13.454;2022-07-23T02:10:40;7.03;;;4.97;;
6537;SDS011;3302;52.508;13.454;2022-07-23T02:13:05;8.13;;;4.80;;
6537;SDS011;3302;52.508;13.454;2022-07-23T02:15:31;7.27;;;4.63;;
6537;SDS011;3302;52.508;13.454;2022-07-23T02:17:58;5.77;;;4.53;;
6537;SDS011;3302;52.508;13.454;2022-07-23T02:20:24;5.53;;;4.70;;
6537;SDS011;3302;52.508;13.454;2022-07-23T02:22:50;5.70;;;4.93;;
6537;SDS011;3302;52.508;13.454;2022-07-23T02:25:16;6.17;;;4.87;;
6537;SDS011;3302;52.508;13.454;2022-07-23T02:27:42;5.20;;;4.70;;
6537;SDS011;3302;52.508;13.454;2022-07-23T02:30:08;4.83;;;4.40;;
6537;SDS011;3302;52.508;13.454;2022-07-23T02:32:35;6.77;;;4.60;;
6537;SDS011;3302;52.508;13.454;2022-07-23T02:35:02;6.10;;;4.80;;
6537;SDS011;3302;52.508;13.454;2022-07-23T02:37:29;5.83;;;4.70;;
6537;SDS011;3302;52.508;13.454;2022-07-23T02:39:55;5.50;;;4.70;;
6537;SDS011;3302;52.508;13.454;2022-07-23T02:42:21;7.27;;;4.57;;
6537;SDS011;3302;52.508;13.454;2022-07-23T02:44:46;5.53;;;4.90;;
6537;SDS011;3302;52.508;13.454;2022-07-23T02:47:12;6.53;;;4.80;;
6537;SDS011;3302;52.508;13.454;2022-07-23T02:49:38;5.50;;;4.47;;
6537;SDS011;3302;52.508;13.454;2022-07-23T02:52:04;6.90;;;4.60;;
6537;SDS011;3302;52.508;13.454;2022-07-23T02:54:29;8.40;;;4.70;;
6537;SDS011;3302;52.508;13.454;2022-07-23T02:56:55;6.00;;;4.63;;
6537;SDS011;3302;52.508;13.454;2022-07-23T02:59:21;7.53;;;4.53;;
6537;SDS011;3302;52.508;13.454;2022-07-23T03:01:47;5.17;;;4.40;;
6537;SDS011;3302;52.508;13.454;2022-07-23T03:04:12;5.47;;;4.67;;
6537;SDS011;3302;52.508;13.454;2022-07-23T03:06:38;6.00;;;4.63;;
6537;SDS011;3302;52.508;13.454;2022-07-23T03:09:04;6.20;;;5.07;;
6537;SDS011;3302;52.508;13.454;2022-07-23T03:11:31;5.10;;;4.37;;
6537;SDS011;3302;52.508;13.454;2022-07-23T03:13:57;5.50;;;4.43;;
6537;SDS011;3302;52.508;13.454;2022-07-23T03:16:22;7.70;;;5.00;;
6537;SDS011;3302;52.508;13.454;2022-07-23T03:18:48;7.20;;;4.63;;
6537;SDS011;3302;52.508;13.454;2022-07-23T03:21:14;5.00;;;4.50;;
6537;SDS011;3302;52.508;13.454;2022-07-23T03:23:40;6.07;;;4.80;;
6537;SDS011;3302;52.508;13.454;2022-07-23T03:26:05;5.27;;;4.50;;
6537;SDS011;3302;52.508;13.454;2022-07-23T03:28:31;6.20;;;4.90;;
6537;SDS011;3302;52.508;13.454;2022-07-23T03:30:57;6.53;;;4.57;;
6537;SDS011;3302;52.508;13.454;2022-07-23T03:33:23;5.90;;;5.20;;
6537;SDS011;3302;52.508;13.454;2022-07-23T03:35:49;6.50;;;4.33;;
6537;SDS011;3302;52.508;13.454;2022-07-23T03:38:15;4.53;;;4.13;;
6537;SDS011;3302;52.508;13.454;2022-07-23T03:40:41;8.60;;;4.77;;
6537;SDS011;3302;52.508;13.454;2022-07-23T03:43:07;6.93;;;4.13;;
6537;SDS011;3302;52.508;13.454;2022-07-23T03:45:33;8.10;;;4.60;;
6537;SDS011;3302;52.508;13.454;2022-07-23T03:47:59;6.30;;;3.77;;
6537;SDS011;3302;52.508;13.454;2022-07-23T03:50:25;4.90;;;3.93;;
6537;SDS011;3302;52.508;13.454;2022-07-23T03:52:51;5.53;;;4.00;;
6537;SDS011;3302;52.508;13.454;2022-07-23T03:55:17;5.37;;;3.57;;
6537;SDS011;3302;52.508;13.454;2022-07-23T03:57:43;6.37;;;3.80;;
6537;SDS011;3302;52.508;13.454;2022-07-23T04:00:09;5.17;;;3.90;;
6537;SDS011;3302;52.508;13.454;2022-07-23T04:02:37;6.27;;;3.67;;
6537;SDS011;3302;52.508;13.454;2022-07-23T04:05:03;4.67;;;3.50;;
6537;SDS011;3302;52.508;13.454;2022-07-23T04:07:29;4.23;;;3.57;;
6537;SDS011;3302;52.508;13.454;2022-07-23T04:09:55;5.57;;;3.40;;
6537;SDS011;3302;52.508;13.454;2022-07-23T04:12:21;5.77;;;3.77;;
6537;SDS011;3302;52.508;13.454;2022-07-23T04:14:47;6.03;;;3.07;;
6537;SDS011;3302;52.508;13.454;2022-07-23T04:17:13;3.93;;;3.33;;
6537;SDS011;3302;52.508;13.454;2022-07-23T04:19:39;3.63;;;3.00;;
6537;SDS011;3302;52.508;13.454;2022-07-23T04:22:07;6.80;;;3.60;;
6537;SDS011;3302;52.508;13.454;2022-07-23T04:24:33;6.23;;;3.53;;
6537;SDS011;3302;52.508;13.454;2022-07-23T04:26:59;7.13;;;3.70;;
6537;SDS011;3302;52.508;13.454;2022-07-23T04:29:25;6.60;;;3.23;;
6537;SDS011;3302;52.508;13.454;2022-07-23T04:31:51;6.63;;;2.93;;
6537;SDS011;3302;52.508;13.454;2022-07-23T04:34:17;6.67;;;2.90;;
6537;SDS011;3302;52.508;13.454;2022-07-23T04:36:43;4.00;;;2.83;;
6537;SDS011;3302;52.508;13.454;2022-07-23T04:39:10;3.73;;;2.90;;
6537;SDS011;3302;52.508;13.454;2022-07-23T04:41:35;6.30;;;3.70;;
6537;SDS011;3302;52.508;13.454;2022-07-23T04:44:01;12.97;;;4.27;;
6537;SDS011;3302;52.508;13.454;2022-07-23T04:46:27;9.07;;;3.87;;
6537;SDS011;3302;52.508;13.454;2022-07-23T04:48:53;6.00;;;3.20;;
6537;SDS011;3302;52.508;13.454;2022-07-23T04:51:19;7.50;;;3.27;;
6537;SDS011;3302;52.508;13.454;2022-07-23T04:53:45;7.30;;;3.40;;
6537;SDS011;3302;52.508;13.454;2022-07-23T04:56:11;9.77;;;3.73;;
6537;SDS011;3302;52.508;13.454;2022-07-23T04:58:37;5.60;;;3.30;;
6537;SDS011;3302;52.508;13.454;2022-07-23T05:01:03;5.43;;;3.30;;
6537;SDS011;3302;52.508;13.454;2022-07-23T05:03:29;6.07;;;3.40;;
6537;SDS011;3302;52.508;13.454;2022-07-23T05:05:55;5.47;;;3.40;;
6537;SDS011;3302;52.508;13.454;2022-07-23T05:08:21;4.90;;;3.53;;
6537;SDS011;3302;52.508;13.454;2022-07-23T05:10:47;5.43;;;3.90;;
6537;SDS011;3302;52.508;13.454;2022-07-23T05:13:16;5.13;;;3.70;;
6537;SDS011;3302;52.508;13.454;2022-07-23T05:15:43;6.93;;;3.40;;
6537;SDS011;3302;52.508;13.454;2022-07-23T05:18:09;8.83;;;3.60;;
6537;SDS011;3302;52.508;13.454;2022-07-23T05:20:34;4.17;;;3.73;;
6537;SDS011;3302;52.508;13.454;2022-07-23T05:23:00;6.90;;;3.30;;
6537;SDS011;3302;52.508;13.454;2022-07-23T05:25:26;5.83;;;3.60;;
6537;SDS011;3302;52.508;13.454;2022-07-23T05:27:52;5.70;;;3.50;;
6537;SDS011;3302;52.508;13.454;2022-07-23T05:30:18;7.63;;;3.57;;
6537;SDS011;3302;52.508;13.454;2022-07-23T05:32:43;4.23;;;3.30;;
6537;SDS011;3302;52.508;13.454;2022-07-23T05:35:09;5.20;;;3.63;;
6537;SDS011;3302;52.508;13.454;2022-07-23T05:37:35;6.67;;;3.60;;
6537;SDS011;3302;52.508;13.454;2022-07-23T05:40:04;6.13;;;3.40;;
6537;SDS011;3302;52.508;13.454;2022-07-23T05:42:36;9.63;;;3.30;;
6537;SDS011;3302;52.508;13.454;2022-07-23T05:45:03;5.73;;;3.40;;
6537;SDS011;3302;52.508;13.454;2022-07-23T05:47:42;6.47;;;3.40;;
6537;SDS011;3302;52.508;13.454;2022-07-23T05:50:09;5.93;;;3.33;;
6537;SDS011;3302;52.508;13.454;2022-07-23T05:52:36;4.40;;;3.70;;
6537;SDS011;3302;52.508;13.454;2022-07-23T05:55:03;5.63;;;3.47;;
6537;SDS011;3302;52.508;13.454;2022-07-23T05:57:30;4.57;;;3.20;;
6537;SDS011;3302;52.508;13.454;2022-07-23T05:59:55;4.63;;;3.20;;
6537;SDS011;3302;52.508;13.454;2022-07-23T06:02:21;4.70;;;3.07;;
6537;SDS011;3302;52.508;13.454;2022-07-23T06:04:47;5.47;;;3.30;;
6537;SDS011;3302;52.508;13.454;2022-07-23T06:07:13;7.27;;;3.60;;
6537;SDS011;3302;52.508;13.454;2022-07-23T06:09:38;7.57;;;3.97;;
6537;SDS011;3302;52.508;13.454;2022-07-23T06:12:04;4.90;;;3.53;;
6537;SDS011;3302;52.508;13.454;2022-07-23T06:14:30;5.13;;;3.47;;
6537;SDS011;3302;52.508;13.454;2022-07-23T06:16:56;6.60;;;3.80;;
6537;SDS011;3302;52.508;13.454;2022-07-23T06:19:22;6.37;;;4.03;;
6537;SDS011;3302;52.508;13.454;2022-07-23T06:21:47;3.90;;;3.37;;
6537;SDS011;3302;52.508;13.454;2022-07-23T06:24:14;5.23;;;3.87;;
6537;SDS011;3302;52.508;13.454;2022-07-23T06:26:40;5.30;;;3.60;;
6537;SDS011;3302;52.508;13.454;2022-07-23T06:29:06;5.47;;;3.80;;
6537;SDS011;3302;52.508;13.454;2022-07-23T06:31:32;6.87;;;4.17;;
6537;SDS011;3302;52.508;13.454;2022-07-23T06:33:58;6.93;;;4.50;;
6537;SDS011;3302;52.508;13.454;2022-07-23T06:36:24;7.23;;;4.30;;
6537;SDS011;3302;52.508;13.454;2022-07-23T06:38:50;8.80;;;4.10;;
6537;SDS011;3302;52.508;13.454;2022-07-23T06:41:15;6.80;;;4.20;;
6537;SDS011;3302;52.508;13.454;2022-07-23T06:43:41;7.10;;;4.30;;
6537;SDS011;3302;52.508;13.454;2022-07-23T06:46:07;9.33;;;4.97;;
6537;SDS011;3302;52.508;13.454;2022-07-23T06:48:33;8.43;;;4.60;;
6537;SDS011;3302;52.508;13.454;2022-07-23T06:51:01;7.73;;;4.27;;
6537;SDS011;3302;52.508;13.454;2022-07-23T06:53:27;5.20;;;4.10;;
6537;SDS011;3302;52.508;13.454;2022-07-23T06:55:53;8.40;;;4.60;;
6537;SDS011;3302;52.508;13.454;2022-07-23T06:58:19;9.83;;;5.00;;
6537;SDS011;3302;52.508;13.454;2022-07-23T07:00:45;6.00;;;4.50;;
6537;SDS011;3302;52.508;13.454;2022-07-23T07:03:11;6.37;;;4.80;;
6537;SDS011;3302;52.508;13.454;2022-07-23T07:05:37;6.20;;;5.07;;
6537;SDS011;3302;52.508;13.454;2022-07-23T07:08:04;7.10;;;4.90;;
6537;SDS011;3302;52.508;13.454;2022-07-23T07:10:31;5.73;;;4.20;;
6537;SDS011;3302;52.508;13.454;2022-07-23T07:12:57;10.17;;;5.10;;
6537;SDS011;3302;52.508;13.454;2022-07-23T07:15:22;6.73;;;5.10;;
6537;SDS011;3302;52.508;13.454;2022-07-23T07:17:48;9.87;;;5.47;;
6537;SDS011;3302;52.508;13.454;2022-07-23T07:20:14;5.53;;;4.30;;
6537;SDS011;3302;52.508;13.454;2022-07-23T07:22:40;9.23;;;5.20;;
6537;SDS011;3302;52.508;13.454;2022-07-23T07:25:06;8.23;;;5.20;;
6537;SDS011;3302;52.508;13.454;2022-07-23T07:27:32;7.57;;;4.93;;
6537;SDS011;3302;52.508;13.454;2022-07-23T07:29:58;8.20;;;4.60;;
6537;SDS011;3302;52.508;13.454;2022-07-23T07:32:24;8.90;;;5.40;;
6537;SDS011;3302;52.508;13.454;2022-07-23T07:34:50;8.80;;;5.60;;
6537;SDS011;3302;52.508;13.454;2022-07-23T07:37:16;8.23;;;5.77;;
6537;SDS011;3302;52.508;13.454;2022-07-23T07:39:42;9.23;;;5.90;;
6537;SDS011;3302;52.508;13.454;2022-07-23T07:42:07;7.90;;;6.20;;
6537;SDS011;3302;52.508;13.454;2022-07-23T07:44:33;7.87;;;6.17;;
6537;SDS011;3302;52.508;13.454;2022-07-23T07:46:59;8.50;;;5.90;;
6537;SDS011;3302;52.508;13.454;2022-07-23T07:49:24;8.70;;;5.63;;
6537;SDS011;3302;52.508;13.454;2022-07-23T07:51:50;6.73;;;5.80;;
6537;SDS011;3302;52.508;13.454;2022-07-23T07:54:16;7.43;;;6.47;;
6537;SDS011;3302;52.508;13.454;2022-07-23T07:56:42;8.43;;;6.00;;
6537;SDS011;3302;52.508;13.454;2022-07-23T07:59:07;7.10;;;5.63;;
6537;SDS011;3302;52.508;13.454;2022-07-23T08:01:33;9.37;;;6.13;;
6537;SDS011;3302;52.508;13.454;2022-07-23T08:03:59;9.87;;;5.43;;
6537;SDS011;3302;52.508;13.454;2022-07-23T08:06:25;13.33;;;6.00;;
6537;SDS011;3302;52.508;13.454;2022-07-23T08:08:50;5.90;;;5.30;;
6537;SDS011;3302;52.508;13.454;2022-07-23T08:11:16;7.13;;;5.67;;
6537;SDS011;3302;52.508;13.454;2022-07-23T08:13:42;7.97;;;5.40;;
6537;SDS011;3302;52.508;13.454;2022-07-23T08:16:09;6.73;;;5.30;;
6537;SDS011;3302;52.508;13.454;2022-07-23T08:18:36;8.77;;;5.30;;
6537;SDS011;3302;52.508;13.454;2022-07-23T08:21:01;6.77;;;4.83;;
6537;SDS011;3302;52.508;13.454;2022-07-23T08:23:29;6.80;;;5.30;;
6537;SDS011;3302;52.508;13.454;2022-07-23T08:25:55;6.27;;;5.37;;
6537;SDS011;3302;52.508;13.454;2022-07-23T08:28:22;7.80;;;4.50;;
6537;SDS011;3302;52.508;13.454;2022-07-23T08:30:48;6.23;;;4.30;;
6537;SDS011;3302;52.508;13.454;2022-07-23T08:33:14;7.03;;;4.20;;
6537;SDS011;3302;52.508;13.454;2022-07-23T08:35:48;6.57;;;4.80;;
6537;SDS011;3302;52.508;13.454;2022-07-23T08:38:16;7.40;;;4.40;;
6537;SDS011;3302;52.508;13.454;2022-07-23T08:40:44;4.90;;;4.30;;
6537;SDS011;3302;52.508;13.454;2022-07-23T08:43:15;5.83;;;4.03;;
6537;SDS011;3302;52.508;13.454;2022-07-23T08:45:45;7.13;;;4.40;;
6537;SDS011;3302;52.508;13.454;2022-07-23T08:48:22;5.83;;;4.20;;
6537;SDS011;3302;52.508;13.454;2022-07-23T08:50:50;6.37;;;4.27;;
6537;SDS011;3302;52.508;13.454;2022-07-23T08:53:19;6.67;;;4.77;;
6537;SDS011;3302;52.508;13.454;2022-07-23T08:55:46;6.53;;;4.57;;
6537;SDS011;3302;52.508;13.454;2022-07-23T08:58:14;5.40;;;4.80;;
6537;SDS011;3302;52.508;13.454;2022-07-23T09:00:40;4.83;;;4.00;;
6537;SDS011;3302;52.508;13.454;2022-07-23T09:03:06;8.07;;;3.93;;
6537;SDS011;3302;52.508;13.454;2022-07-23T09:05:31;5.53;;;3.67;;
6537;SDS011;3302;52.508;13.454;2022-07-23T09:08:07;6.10;;;3.53;;
6537;SDS011;3302;52.508;13.454;2022-07-23T09:10:42;5.57;;;3.53;;
6537;SDS011;3302;52.508;13.454;2022-07-23T09:13:22;5.37;;;3.77;;
6537;SDS011;3302;52.508;13.454;2022-07-23T09:15:48;7.17;;;4.30;;
6537;SDS011;3302;52.508;13.454;2022-07-23T09:18:15;6.53;;;3.90;;
6537;SDS011;3302;52.508;13.454;2022-07-23T09:20:41;9.73;;;4.47;;
6537;SDS011;3302;52.508;13.454;2022-07-23T09:23:08;7.90;;;4.60;;
6537;SDS011;3302;52.508;13.454;2022-07-23T09:25:33;6.77;;;4.23;;
6537;SDS011;3302;52.508;13.454;2022-07-23T09:27:59;5.77;;;4.00;;
6537;SDS011;3302;52.508;13.454;2022-07-23T09:30:31;6.03;;;4.07;;
6537;SDS011;3302;52.508;13.454;2022-07-23T09:33:12;6.37;;;4.30;;
6537;SDS011;3302;52.508;13.454;2022-07-23T09:35:53;5.63;;;3.30;;
6537;SDS011;3302;52.508;13.454;2022-07-23T09:38:23;5.43;;;3.83;;
6537;SDS011;3302;52.508;13.454;2022-07-23T09:41:08;7.43;;;4.07;;
6537;SDS011;3302;52.508;13.454;2022-07-23T09:43:35;6.00;;;4.07;;
6537;SDS011;3302;52.508;13.454;2022-07-23T09:48:51;4.67;;;3.80;;
6537;SDS011;3302;52.508;13.454;2022-07-23T09:51:18;6.03;;;4.30;;
6537;SDS011;3302;52.508;13.454;2022-07-23T09:53:49;5.40;;;4.03;;
6537;SDS011;3302;52.508;13.454;2022-07-23T09:56:15;6.77;;;4.50;;
6537;SDS011;3302;52.508;13.454;2022-07-23T09:58:42;6.50;;;4.30;;
6537;SDS011;3302;52.508;13.454;2022-07-23T10:01:14;7.57;;;4.20;;
6537;SDS011;3302;52.508;13.454;2022-07-23T10:03:40;4.27;;;3.83;;
6537;SDS011;3302;52.508;13.454;2022-07-23T10:06:08;8.70;;;4.67;;
6537;SDS011;3302;52.508;13.454;2022-07-23T10:08:39;5.50;;;3.70;;
6537;SDS011;3302;52.508;13.454;2022-07-23T10:11:07;7.00;;;4.10;;
6537;SDS011;3302;52.508;13.454;2022-07-23T10:13:36;4.80;;;3.73;;
6537;SDS011;3302;52.508;13.454;2022-07-23T10:16:20;5.53;;;3.70;;
6537;SDS011;3302;52.508;13.454;2022-07-23T10:18:46;5.03;;;3.60;;
6537;SDS011;3302;52.508;13.454;2022-07-23T10:21:12;6.23;;;3.90;;
6537;SDS011;3302;52.508;13.454;2022-07-23T10:23:45;7.13;;;3.80;;
6537;SDS011;3302;52.508;13.454;2022-07-23T10:34:40;4.03;;;3.23;;
6537;SDS011;3302;52.508;13.454;2022-07-23T10:40:12;6.33;;;3.23;;
6537;SDS011;3302;52.508;13.454;2022-07-23T10:42:48;6.23;;;3.47;;
6537;SDS011;3302;52.508;13.454;2022-07-23T10:51:13;4.23;;;3.70;;
6537;SDS011;3302;52.508;13.454;2022-07-23T10:53:52;4.17;;;2.70;;
6537;SDS011;3302;52.508;13.454;2022-07-23T10:59:19;5.50;;;3.13;;
6537;SDS011;3302;52.508;13.454;2022-07-23T11:01:45;4.60;;;3.00;;
6537;SDS011;3302;52.508;13.454;2022-07-23T11:04:11;4.80;;;2.93;;
6537;SDS011;3302;52.508;13.454;2022-07-23T11:09:25;5.33;;;2.77;;
6537;SDS011;3302;52.508;13.454;2022-07-23T11:17:24;5.60;;;3.73;;
6537;SDS011;3302;52.508;13.454;2022-07-23T11:22:38;5.00;;;2.70;;
6537;SDS011;3302;52.508;13.454;2022-07-23T11:27:54;5.03;;;3.07;;
6537;SDS011;3302;52.508;13.454;2022-07-23T11:32:53;4.70;;;3.43;;
6537;SDS011;3302;52.508;13.454;2022-07-23T11:35:40;3.87;;;3.00;;
6537;SDS011;3302;52.508;13.454;2022-07-23T11:38:13;3.97;;;3.13;;
6537;SDS011;3302;52.508;13.454;2022-07-23T11:40:41;4.07;;;3.53;;
6537;SDS011;3302;52.508;13.454;2022-07-23T11:43:09;4.47;;;3.20;;
6537;SDS011;3302;52.508;13.454;2022-07-23T11:50:45;5.50;;;3.53;;
6537;SDS011;3302;52.508;13.454;2022-07-23T11:53:11;3.50;;;3.00;;
6537;SDS011;3302;52.508;13.454;2022-07-23T11:55:38;5.13;;;3.70;;
6537;SDS011;3302;52.508;13.454;2022-07-23T11:58:04;5.40;;;3.33;;
6537;SDS011;3302;52.508;13.454;2022-07-23T12:00:30;4.60;;;3.20;;
6537;SDS011;3302;52.508;13.454;2022-07-23T12:02:57;4.80;;;3.47;;
6537;SDS011;3302;52.508;13.454;2022-07-23T12:05:27;3.97;;;3.10;;
6537;SDS011;3302;52.508;13.454;2022-07-23T12:07:58;4.00;;;3.20;;
6537;SDS011;3302;52.508;13.454;2022-07-23T12:10:26;5.40;;;3.17;;
6537;SDS011;3302;52.508;13.454;2022-07-23T12:12:55;6.57;;;3.10;;
6537;SDS011;3302;52.508;13.454;2022-07-23T12:15:32;7.83;;;3.23;;
6537;SDS011;3302;52.508;13.454;2022-07-23T12:18:02;4.10;;;3.20;;
6537;SDS011;3302;52.508;13.454;2022-07-23T12:20:36;4.97;;;3.10;;
6537;SDS011;3302;52.508;13.454;2022-07-23T12:23:04;5.80;;;3.70;;
6537;SDS011;3302;52.508;13.454;2022-07-23T12:25:32;3.80;;;3.00;;
6537;SDS011;3302;52.508;13.454;2022-07-23T12:30:57;6.73;;;3.57;;
6537;SDS011;3302;52.508;13.454;2022-07-23T12:33:25;5.37;;;3.40;;
6537;SDS011;3302;52.508;13.454;2022-07-23T12:36:05;3.87;;;3.20;;
6537;SDS011;3302;52.508;13.454;2022-07-23T12:38:43;4.50;;;2.87;;
6537;SDS011;3302;52.508;13.454;2022-07-23T12:41:14;4.67;;;3.43;;
6537;SDS011;3302;52.508;13.454;2022-07-23T12:43:41;4.37;;;3.97;;
6537;SDS011;3302;52.508;13.454;2022-07-23T12:46:14;5.57;;;3.43;;
6537;SDS011;3302;52.508;13.454;2022-07-23T12:51:17;7.97;;;3.40;;
6537;SDS011;3302;52.508;13.454;2022-07-23T12:53:46;4.73;;;3.23;;
6537;SDS011;3302;52.508;13.454;2022-07-23T12:56:14;3.67;;;3.03;;
6537;SDS011;3302;52.508;13.454;2022-07-23T12:58:42;5.77;;;3.67;;
6537;SDS011;3302;52.508;13.454;2022-07-23T13:06:35;5.47;;;3.90;;
6537;SDS011;3302;52.508;13.454;2022-07-23T13:09:03;5.93;;;4.10;;
6537;SDS011;3302;52.508;13.454;2022-07-23T13:11:31;5.87;;;3.63;;
6537;SDS011;3302;52.508;13.454;2022-07-23T13:13:57;5.10;;;3.53;;
6537;SDS011;3302;52.508;13.454;2022-07-23T13:16:23;4.40;;;3.27;;
6537;SDS011;3302;52.508;13.454;2022-07-23T13:18:49;6.13;;;3.90;;
6537;SDS011;3302;52.508;13.454;2022-07-23T13:21:14;4.77;;;3.40;;
6537;SDS011;3302;52.508;13.454;2022-07-23T13:23:41;5.20;;;3.20;;
6537;SDS011;3302;52.508;13.454;2022-07-23T13:26:07;4.63;;;3.00;;
6537;SDS011;3302;52.508;13.454;2022-07-23T13:28:33;6.60;;;3.80;;
6537;SDS011;3302;52.508;13.454;2022-07-23T13:30:59;4.70;;;3.60;;
6537;SDS011;3302;52.508;13.454;2022-07-23T13:33:24;5.63;;;3.73;;
6537;SDS011;3302;52.508;13.454;2022-07-23T13:35:51;3.30;;;3.00;;
6537;SDS011;3302;52.508;13.454;2022-07-23T13:38:19;4.40;;;3.17;;
6537;SDS011;3302;52.508;13.454;2022-07-23T13:40:46;4.87;;;2.93;;
6537;SDS011;3302;52.508;13.454;2022-07-23T13:43:14;4.40;;;3.20;;
6537;SDS011;3302;52.508;13.454;2022-07-23T13:45:42;3.67;;;3.33;;
6537;SDS011;3302;52.508;13.454;2022-07-23T13:48:10;5.13;;;3.03;;
6537;SDS011;3302;52.508;13.454;2022-07-23T13:50:36;4.60;;;2.80;;
6537;SDS011;3302;52.508;13.454;2022-07-23T13:53:08;4.83;;;2.87;;
6537;SDS011;3302;52.508;13.454;2022-07-23T13:55:36;7.40;;;3.60;;
6537;SDS011;3302;52.508;13.454;2022-07-23T13:58:03;3.67;;;2.80;;
6537;SDS011;3302;52.508;13.454;2022-07-23T14:00:30;4.90;;;3.33;;
6537;SDS011;3302;52.508;13.454;2022-07-23T14:02:57;3.83;;;2.90;;
6537;SDS011;3302;52.508;13.454;2022-07-23T14:05:23;3.60;;;2.67;;
6537;SDS011;3302;52.508;13.454;2022-07-23T14:07:49;5.10;;;2.77;;
6537;SDS011;3302;52.508;13.454;2022-07-23T14:10:17;4.47;;;2.90;;
6537;SDS011;3302;52.508;13.454;2022-07-23T14:12:44;3.63;;;2.57;;
6537;SDS011;3302;52.508;13.454;2022-07-23T14:15:11;3.83;;;2.53;;
6537;SDS011;3302;52.508;13.454;2022-07-23T14:17:38;5.65;;;2.80;;
6537;SDS011;3302;52.508;13.454;2022-07-23T14:20:05;4.17;;;2.90;;
6537;SDS011;3302;52.508;13.454;2022-07-23T14:22:32;2.67;;;2.43;;
6537;SDS011;3302;52.508;13.454;2022-07-23T14:24:58;7.80;;;3.10;;
6537;SDS011;3302;52.508;13.454;2022-07-23T14:27:24;6.83;;;2.73;;
6537;SDS011;3302;52.508;13.454;2022-07-23T14:29:51;3.60;;;2.37;;
6537;SDS011;3302;52.508;13.454;2022-07-23T14:32:17;2.50;;;2.30;;
6537;SDS011;3302;52.508;13.454;2022-07-23T14:34:43;6.60;;;2.70;;
6537;SDS011;3302;52.508;13.454;2022-07-23T14:37:09;3.17;;;2.67;;
6537;SDS011;3302;52.508;13.454;2022-07-23T14:39:37;4.10;;;2.13;;
6537;SDS011;3302;52.508;13.454;2022-07-23T14:42:04;3.77;;;2.40;;
6537;SDS011;3302;52.508;13.454;2022-07-23T14:44:30;2.73;;;2.50;;
6537;SDS011;3302;52.508;13.454;2022-07-23T14:46:56;3.10;;;2.00;;
6537;SDS011;3302;52.508;13.454;2022-07-23T14:49:22;3.70;;;2.20;;
6537;SDS011;3302;52.508;13.454;2022-07-23T14:51:47;3.75;;;2.47;;
6537;SDS011;3302;52.508;13.454;2022-07-23T14:54:14;3.30;;;2.40;;
6537;SDS011;3302;52.508;13.454;2022-07-23T14:56:40;4.17;;;2.40;;
6537;SDS011;3302;52.508;13.454;2022-07-23T14:59:07;4.23;;;2.40;;
6537;SDS011;3302;52.508;13.454;2022-07-23T15:01:33;2.87;;;2.03;;
6537;SDS011;3302;52.508;13.454;2022-07-23T15:04:00;2.10;;;1.80;;
6537;SDS011;3302;52.508;13.454;2022-07-23T15:06:26;3.63;;;2.40;;
6537;SDS011;3302;52.508;13.454;2022-07-23T15:08:52;5.30;;;2.57;;
6537;SDS011;3302;52.508;13.454;2022-07-23T15:11:18;5.40;;;2.23;;
6537;SDS011;3302;52.508;13.454;2022-07-23T15:13:43;3.83;;;2.77;;
6537;SDS011;3302;52.508;13.454;2022-07-23T15:16:09;3.43;;;2.20;;
6537;SDS011;3302;52.508;13.454;2022-07-23T15:18:35;3.93;;;2.57;;
6537;SDS011;3302;52.508;13.454;2022-07-23T15:21:01;3.47;;;2.23;;
6537;SDS011;3302;52.508;13.454;2022-07-23T15:23:27;2.10;;;1.90;;
6537;SDS011;3302;52.508;13.454;2022-07-23T15:25:54;3.80;;;2.22;;
6537;SDS011;3302;52.508;13.454;2022-07-23T15:28:20;3.83;;;2.87;;
6537;SDS011;3302;52.508;13.454;2022-07-23T15:30:47;3.37;;;2.40;;
6537;SDS011;3302;52.508;13.454;2022-07-23T15:33:14;2.50;;;1.83;;
6537;SDS011;3302;52.508;13.454;2022-07-23T15:35:40;5.43;;;2.20;;
6537;SDS011;3302;52.508;13.454;2022-07-23T15:38:06;2.97;;;1.90;;
6537;SDS011;3302;52.508;13.454;2022-07-23T15:40:31;3.63;;;2.67;;
6537;SDS011;3302;52.508;13.454;2022-07-23T15:42:57;3.20;;;2.05;;
6537;SDS011;3302;52.508;13.454;2022-07-23T15:45:23;3.10;;;2.07;;
6537;SDS011;3302;52.508;13.454;2022-07-23T15:47:48;2.80;;;1.90;;
6537;SDS011;3302;52.508;13.454;2022-07-23T15:50:14;2.67;;;2.10;;
6537;SDS011;3302;52.508;13.454;2022-07-23T15:52:40;3.35;;;1.98;;
6537;SDS011;3302;52.508;13.454;2022-07-23T15:55:06;2.08;;;1.63;;